sensor_id;sensor_type;location;lat;lon;timestamp;P1;durP1;ratioP1;P2;durP2;ratioP2
31224;SDS011;17847;31.524;74.366;2023-04-03T00:02:00;25.23;;;18.80;;
31224;SDS011;17847;31.524;74.366;2023-04-03T00:04:30;26.33;;;19.42;;
31224;SDS011;17847;31.524;74.366;2023-04-03T00:07:00;26.25;;;18.85;;
31224;SDS011;17847;31.524;74.366;2023-04-03T00:09:29;22.55;;;18.05;;
31224;SDS011;17847;31.524;74.366;2023-04-03T00:11:59;21.80;;;17.80;;
31224;SDS011;17847;31.524;74.366;2023-04-03T00:14:29;28.52;;;17.85;;
31224;SDS011;17847;31.524;74.366;2023-04-03T00:16:58;21.08;;;16.08;;
31224;SDS011;17847;31.524;74.366;2023-04-03T00:19:27;20.65;;;16.25;;
31224;SDS011;17847;31.524;74.366;2023-04-03T00:21:57;21.73;;;17.20;;
31224;SDS011;17847;31.524;74.366;2023-04-03T00:24:27;18.13;;;14.93;;
31224;SDS011;17847;31.524;74.366;2023-04-03T00:26:56;24.27;;;16.25;;
31224;SDS011;17847;31.524;74.366;2023-04-03T00:29:26;20.48;;;16.15;;
31224;SDS011;17847;31.524;74.366;2023-04-03T00:31:55;19.80;;;15.20;;
31224;SDS011;17847;31.524;74.366;2023-04-03T00:34:25;19.27;;;15.63;;
31224;SDS011;17847;31.524;74.366;2023-04-03T00:36:54;19.58;;;14.60;;
31224;SDS011;17847;31.524;74.366;2023-04-03T00:39:24;19.98;;;15.70;;
31224;SDS011;17847;31.524;74.366;2023-04-03T00:41:53;21.23;;;15.30;;
31224;SDS011;17847;31.524;74.366;2023-04-03T00:47:05;28.25;;;21.23;;
31224;SDS011;17847;31.524;74.366;2023-04-03T00:49:37;31.55;;;22.20;;
31224;SDS011;17847;31.524;74.366;2023-04-03T00:52:09;29.10;;;23.00;;
31224;SDS011;17847;31.524;74.366;2023-04-03T00:54:43;31.30;;;24.63;;
31224;SDS011;17847;31.524;74.366;2023-04-03T00:57:16;38.03;;;26.40;;
31224;SDS011;17847;31.524;74.366;2023-04-03T00:59:52;34.92;;;26.65;;
31224;SDS011;17847;31.524;74.366;2023-04-03T01:02:26;36.38;;;27.83;;
31224;SDS011;17847;31.524;74.366;2023-04-03T01:04:57;35.20;;;28.35;;
31224;SDS011;17847;31.524;74.366;2023-04-03T01:07:27;37.17;;;30.05;;
31224;SDS011;17847;31.524;74.366;2023-04-03T01:10:03;37.05;;;28.02;;
31224;SDS011;17847;31.524;74.366;2023-04-03T01:12:37;40.10;;;29.02;;
31224;SDS011;17847;31.524;74.366;2023-04-03T01:15:21;38.30;;;29.40;;
31224;SDS011;17847;31.524;74.366;2023-04-03T01:17:53;42.72;;;30.15;;
31224;SDS011;17847;31.524;74.366;2023-04-03T01:28:19;50.10;;;32.80;;
31224;SDS011;17847;31.524;74.366;2023-04-03T01:33:21;52.95;;;32.92;;
31224;SDS011;17847;31.524;74.366;2023-04-03T01:35:51;42.85;;;30.73;;
31224;SDS011;17847;31.524;74.366;2023-04-03T01:38:21;44.00;;;28.92;;
31224;SDS011;17847;31.524;74.366;2023-04-03T01:40:50;36.70;;;26.52;;
31224;SDS011;17847;31.524;74.366;2023-04-03T01:43:21;35.85;;;25.80;;
31224;SDS011;17847;31.524;74.366;2023-04-03T01:45:50;30.40;;;22.80;;
31224;SDS011;17847;31.524;74.366;2023-04-03T01:48:21;26.23;;;20.30;;
31224;SDS011;17847;31.524;74.366;2023-04-03T01:50:50;26.92;;;20.80;;
31224;SDS011;17847;31.524;74.366;2023-04-03T01:53:20;22.10;;;17.10;;
31224;SDS011;17847;31.524;74.366;2023-04-03T01:55:49;21.20;;;16.75;;
31224;SDS011;17847;31.524;74.366;2023-04-03T01:58:19;18.67;;;15.32;;
31224;SDS011;17847;31.524;74.366;2023-04-03T02:00:50;20.10;;;15.48;;
31224;SDS011;17847;31.524;74.366;2023-04-03T02:03:20;18.77;;;14.52;;
31224;SDS011;17847;31.524;74.366;2023-04-03T02:05:50;17.38;;;14.60;;
31224;SDS011;17847;31.524;74.366;2023-04-03T02:08:19;14.98;;;13.38;;
31224;SDS011;17847;31.524;74.366;2023-04-03T02:10:49;15.65;;;13.48;;
31224;SDS011;17847;31.524;74.366;2023-04-03T02:13:19;15.98;;;14.05;;
31224;SDS011;17847;31.524;74.366;2023-04-03T02:15:48;18.40;;;14.27;;
31224;SDS011;17847;31.524;74.366;2023-04-03T02:18:18;15.70;;;13.73;;
31224;SDS011;17847;31.524;74.366;2023-04-03T02:20:47;15.70;;;13.32;;
31224;SDS011;17847;31.524;74.366;2023-04-03T02:23:16;14.85;;;13.20;;
31224;SDS011;17847;31.524;74.366;2023-04-03T02:25:46;14.73;;;13.05;;
31224;SDS011;17847;31.524;74.366;2023-04-03T02:28:17;16.25;;;12.55;;
31224;SDS011;17847;31.524;74.366;2023-04-03T02:30:47;17.35;;;13.32;;
31224;SDS011;17847;31.524;74.366;2023-04-03T02:33:17;13.88;;;12.13;;
31224;SDS011;17847;31.524;74.366;2023-04-03T02:35:46;16.45;;;12.05;;
31224;SDS011;17847;31.524;74.366;2023-04-03T02:38:22;14.70;;;12.43;;
31224;SDS011;17847;31.524;74.366;2023-04-03T02:40:53;15.20;;;12.35;;
31224;SDS011;17847;31.524;74.366;2023-04-03T02:43:23;14.45;;;11.82;;
31224;SDS011;17847;31.524;74.366;2023-04-03T02:45:53;15.15;;;12.13;;
31224;SDS011;17847;31.524;74.366;2023-04-03T02:48:23;14.70;;;12.70;;
31224;SDS011;17847;31.524;74.366;2023-04-03T02:50:53;17.95;;;12.45;;
31224;SDS011;17847;31.524;74.366;2023-04-03T02:53:23;16.63;;;12.18;;
31224;SDS011;17847;31.524;74.366;2023-04-03T02:55:53;13.00;;;11.27;;
31224;SDS011;17847;31.524;74.366;2023-04-03T02:58:22;14.60;;;11.13;;
31224;SDS011;17847;31.524;74.366;2023-04-03T03:00:54;16.63;;;11.02;;
31224;SDS011;17847;31.524;74.366;2023-04-03T03:03:24;15.13;;;12.38;;
31224;SDS011;17847;31.524;74.366;2023-04-03T03:06:06;14.98;;;11.88;;
31224;SDS011;17847;31.524;74.366;2023-04-03T03:08:39;13.85;;;12.05;;
31224;SDS011;17847;31.524;74.366;2023-04-03T03:11:09;12.30;;;10.95;;
31224;SDS011;17847;31.524;74.366;2023-04-03T03:13:39;13.82;;;11.60;;
31224;SDS011;17847;31.524;74.366;2023-04-03T03:16:09;14.68;;;11.77;;
31224;SDS011;17847;31.524;74.366;2023-04-03T03:18:38;13.30;;;11.90;;
31224;SDS011;17847;31.524;74.366;2023-04-03T03:21:08;16.40;;;13.75;;
31224;SDS011;17847;31.524;74.366;2023-04-03T03:23:39;14.98;;;11.80;;
31224;SDS011;17847;31.524;74.366;2023-04-03T03:26:09;13.40;;;11.82;;
31224;SDS011;17847;31.524;74.366;2023-04-03T03:28:40;15.55;;;12.75;;
31224;SDS011;17847;31.524;74.366;2023-04-03T03:31:11;16.20;;;12.57;;
31224;SDS011;17847;31.524;74.366;2023-04-03T03:33:40;15.70;;;13.63;;
31224;SDS011;17847;31.524;74.366;2023-04-03T03:36:10;20.65;;;13.35;;
31224;SDS011;17847;31.524;74.366;2023-04-03T03:38:39;14.90;;;13.40;;
31224;SDS011;17847;31.524;74.366;2023-04-03T03:41:09;15.38;;;12.73;;
31224;SDS011;17847;31.524;74.366;2023-04-03T03:43:40;11.43;;;10.10;;
31224;SDS011;17847;31.524;74.366;2023-04-03T03:46:11;16.40;;;13.50;;
31224;SDS011;17847;31.524;74.366;2023-04-03T03:48:40;10.77;;;9.65;;
31224;SDS011;17847;31.524;74.366;2023-04-03T03:51:10;14.68;;;12.45;;
31224;SDS011;17847;31.524;74.366;2023-04-03T03:53:39;15.43;;;13.32;;
31224;SDS011;17847;31.524;74.366;2023-04-03T03:56:13;9.93;;;8.93;;
31224;SDS011;17847;31.524;74.366;2023-04-03T03:58:44;17.02;;;14.63;;
31224;SDS011;17847;31.524;74.366;2023-04-03T04:01:13;17.30;;;15.30;;
31224;SDS011;17847;31.524;74.366;2023-04-03T04:03:47;18.80;;;15.60;;
31224;SDS011;17847;31.524;74.366;2023-04-03T04:06:20;18.33;;;15.75;;
31224;SDS011;17847;31.524;74.366;2023-04-03T04:08:52;18.95;;;16.00;;
31224;SDS011;17847;31.524;74.366;2023-04-03T04:11:22;20.33;;;16.85;;
31224;SDS011;17847;31.524;74.366;2023-04-03T04:13:53;18.95;;;13.90;;
31224;SDS011;17847;31.524;74.366;2023-04-03T04:16:25;26.52;;;17.45;;
31224;SDS011;17847;31.524;74.366;2023-04-03T04:18:58;21.33;;;17.42;;
31224;SDS011;17847;31.524;74.366;2023-04-03T04:21:27;20.85;;;17.23;;
31224;SDS011;17847;31.524;74.366;2023-04-03T04:23:57;20.30;;;11.43;;
31224;SDS011;17847;31.524;74.366;2023-04-03T04:26:26;25.30;;;17.30;;
31224;SDS011;17847;31.524;74.366;2023-04-03T04:28:56;26.90;;;17.35;;
31224;SDS011;17847;31.524;74.366;2023-04-03T04:31:26;21.02;;;17.52;;
31224;SDS011;17847;31.524;74.366;2023-04-03T04:33:57;23.13;;;17.40;;
31224;SDS011;17847;31.524;74.366;2023-04-03T04:36:26;18.52;;;16.35;;
31224;SDS011;17847;31.524;74.366;2023-04-03T04:38:57;20.73;;;15.00;;
31224;SDS011;17847;31.524;74.366;2023-04-03T04:41:27;18.38;;;16.38;;
31224;SDS011;17847;31.524;74.366;2023-04-03T04:43:57;20.13;;;17.42;;
31224;SDS011;17847;31.524;74.366;2023-04-03T04:46:27;28.88;;;17.90;;
31224;SDS011;17847;31.524;74.366;2023-04-03T04:48:59;18.13;;;14.93;;
31224;SDS011;17847;31.524;74.366;2023-04-03T04:51:30;19.90;;;15.95;;
31224;SDS011;17847;31.524;74.366;2023-04-03T04:54:12;17.95;;;14.35;;
31224;SDS011;17847;31.524;74.366;2023-04-03T04:56:41;20.77;;;15.38;;
31224;SDS011;17847;31.524;74.366;2023-04-03T04:59:11;21.27;;;16.00;;
31224;SDS011;17847;31.524;74.366;2023-04-03T05:01:40;25.27;;;16.70;;
31224;SDS011;17847;31.524;74.366;2023-04-03T05:04:15;26.58;;;17.02;;
31224;SDS011;17847;31.524;74.366;2023-04-03T05:06:49;22.58;;;18.15;;
31224;SDS011;17847;31.524;74.366;2023-04-03T05:09:23;26.85;;;19.83;;
31224;SDS011;17847;31.524;74.366;2023-04-03T05:11:52;28.65;;;21.48;;
31224;SDS011;17847;31.524;74.366;2023-04-03T05:14:25;33.28;;;27.40;;
31224;SDS011;17847;31.524;74.366;2023-04-03T05:16:59;42.40;;;34.00;;
31224;SDS011;17847;31.524;74.366;2023-04-03T05:19:33;49.67;;;35.60;;
31224;SDS011;17847;31.524;74.366;2023-04-03T05:22:05;44.17;;;33.67;;
31224;SDS011;17847;31.524;74.366;2023-04-03T05:24:35;45.17;;;37.50;;
31224;SDS011;17847;31.524;74.366;2023-04-03T05:27:07;60.13;;;39.33;;
31224;SDS011;17847;31.524;74.366;2023-04-03T05:29:40;43.83;;;37.42;;
31224;SDS011;17847;31.524;74.366;2023-04-03T05:32:16;45.83;;;37.20;;
31224;SDS011;17847;31.524;74.366;2023-04-03T05:34:51;45.00;;;34.10;;
31224;SDS011;17847;31.524;74.366;2023-04-03T05:37:20;42.38;;;34.20;;
31224;SDS011;17847;31.524;74.366;2023-04-03T05:39:52;40.63;;;32.97;;
31224;SDS011;17847;31.524;74.366;2023-04-03T05:42:22;40.40;;;33.60;;
31224;SDS011;17847;31.524;74.366;2023-04-03T05:44:51;39.65;;;33.63;;
31224;SDS011;17847;31.524;74.366;2023-04-03T05:47:21;46.13;;;37.83;;
31224;SDS011;17847;31.524;74.366;2023-04-03T05:49:50;43.83;;;35.40;;
31224;SDS011;17847;31.524;74.366;2023-04-03T05:52:22;47.20;;;36.75;;
31224;SDS011;17847;31.524;74.366;2023-04-03T05:54:55;47.13;;;35.53;;
31224;SDS011;17847;31.524;74.366;2023-04-03T05:57:27;52.25;;;38.63;;
31224;SDS011;17847;31.524;74.366;2023-04-03T05:59:56;43.22;;;34.75;;
31224;SDS011;17847;31.524;74.366;2023-04-03T06:02:28;41.50;;;34.33;;
31224;SDS011;17847;31.524;74.366;2023-04-03T06:05:00;40.60;;;32.30;;
31224;SDS011;17847;31.524;74.366;2023-04-03T06:07:30;40.45;;;32.65;;
31224;SDS011;17847;31.524;74.366;2023-04-03T06:09:59;43.28;;;31.50;;
31224;SDS011;17847;31.524;74.366;2023-04-03T06:12:30;44.97;;;31.75;;
31224;SDS011;17847;31.524;74.366;2023-04-03T06:15:00;35.60;;;29.92;;
31224;SDS011;17847;31.524;74.366;2023-04-03T06:17:30;39.28;;;30.45;;
31224;SDS011;17847;31.524;74.366;2023-04-03T06:20:05;34.08;;;28.98;;
31224;SDS011;17847;31.524;74.366;2023-04-03T06:22:36;37.33;;;27.42;;
31224;SDS011;17847;31.524;74.366;2023-04-03T06:25:05;34.47;;;27.65;;
31224;SDS011;17847;31.524;74.366;2023-04-03T06:27:36;30.30;;;25.02;;
31224;SDS011;17847;31.524;74.366;2023-04-03T06:30:06;31.75;;;24.25;;
31224;SDS011;17847;31.524;74.366;2023-04-03T06:32:36;31.77;;;24.83;;
31224;SDS011;17847;31.524;74.366;2023-04-03T06:35:06;28.25;;;23.17;;
31224;SDS011;17847;31.524;74.366;2023-04-03T06:37:36;28.48;;;24.92;;
31224;SDS011;17847;31.524;74.366;2023-04-03T06:40:06;29.20;;;23.70;;
31224;SDS011;17847;31.524;74.366;2023-04-03T06:42:42;28.75;;;24.08;;
31224;SDS011;17847;31.524;74.366;2023-04-03T06:45:12;28.67;;;24.63;;
31224;SDS011;17847;31.524;74.366;2023-04-03T06:47:41;28.98;;;24.27;;
31224;SDS011;17847;31.524;74.366;2023-04-03T06:50:11;31.08;;;24.35;;
31224;SDS011;17847;31.524;74.366;2023-04-03T06:52:42;28.40;;;23.50;;
31224;SDS011;17847;31.524;74.366;2023-04-03T06:55:12;35.22;;;24.80;;
31224;SDS011;17847;31.524;74.366;2023-04-03T06:57:41;29.08;;;23.40;;
31224;SDS011;17847;31.524;74.366;2023-04-03T07:00:11;37.28;;;23.40;;
31224;SDS011;17847;31.524;74.366;2023-04-03T07:02:41;34.05;;;24.80;;
31224;SDS011;17847;31.524;74.366;2023-04-03T07:05:11;32.47;;;25.17;;
31224;SDS011;17847;31.524;74.366;2023-04-03T07:07:41;34.13;;;23.88;;
31224;SDS011;17847;31.524;74.366;2023-04-03T07:10:12;30.35;;;22.08;;
31224;SDS011;17847;31.524;74.366;2023-04-03T07:12:41;31.50;;;20.33;;
31224;SDS011;17847;31.524;74.366;2023-04-03T07:15:11;28.90;;;20.35;;
31224;SDS011;17847;31.524;74.366;2023-04-03T07:17:41;34.13;;;20.73;;
31224;SDS011;17847;31.524;74.366;2023-04-03T07:20:11;24.50;;;18.88;;
31224;SDS011;17847;31.524;74.366;2023-04-03T07:22:40;21.98;;;17.40;;
31224;SDS011;17847;31.524;74.366;2023-04-03T07:25:10;22.40;;;16.95;;
31224;SDS011;17847;31.524;74.366;2023-04-03T07:27:39;21.98;;;14.90;;
31224;SDS011;17847;31.524;74.366;2023-04-03T07:30:08;16.75;;;14.27;;
31224;SDS011;17847;31.524;74.366;2023-04-03T07:32:39;21.73;;;14.45;;
31224;SDS011;17847;31.524;74.366;2023-04-03T07:35:08;18.15;;;14.23;;
31224;SDS011;17847;31.524;74.366;2023-04-03T07:37:38;21.48;;;13.88;;
31224;SDS011;17847;31.524;74.366;2023-04-03T07:40:08;21.10;;;13.93;;
31224;SDS011;17847;31.524;74.366;2023-04-03T07:42:40;14.63;;;13.13;;
31224;SDS011;17847;31.524;74.366;2023-04-03T07:45:10;21.98;;;14.18;;
31224;SDS011;17847;31.524;74.366;2023-04-03T07:47:40;18.25;;;13.60;;
31224;SDS011;17847;31.524;74.366;2023-04-03T07:50:10;16.67;;;13.25;;
31224;SDS011;17847;31.524;74.366;2023-04-03T07:52:39;17.08;;;12.82;;
31224;SDS011;17847;31.524;74.366;2023-04-03T07:55:09;18.13;;;12.68;;
31224;SDS011;17847;31.524;74.366;2023-04-03T07:57:38;16.30;;;11.50;;
31224;SDS011;17847;31.524;74.366;2023-04-03T08:00:08;16.05;;;12.05;;
31224;SDS011;17847;31.524;74.366;2023-04-03T08:03:09;17.90;;;12.18;;
31224;SDS011;17847;31.524;74.366;2023-04-03T08:05:41;14.40;;;12.07;;
31224;SDS011;17847;31.524;74.366;2023-04-03T08:08:13;17.92;;;12.98;;
31224;SDS011;17847;31.524;74.366;2023-04-03T08:10:51;19.70;;;14.48;;
31224;SDS011;17847;31.524;74.366;2023-04-03T08:13:22;24.67;;;16.77;;
31224;SDS011;17847;31.524;74.366;2023-04-03T08:15:51;26.52;;;17.85;;
31224;SDS011;17847;31.524;74.366;2023-04-03T08:18:33;24.08;;;18.42;;
31224;SDS011;17847;31.524;74.366;2023-04-03T08:21:06;28.40;;;18.77;;
31224;SDS011;17847;31.524;74.366;2023-04-03T08:23:40;20.15;;;17.65;;
31224;SDS011;17847;31.524;74.366;2023-04-03T08:26:12;26.90;;;18.52;;
31224;SDS011;17847;31.524;74.366;2023-04-03T08:28:42;24.85;;;19.38;;
31224;SDS011;17847;31.524;74.366;2023-04-03T08:31:13;24.08;;;17.60;;
31224;SDS011;17847;31.524;74.366;2023-04-03T08:33:46;22.00;;;17.58;;
31224;SDS011;17847;31.524;74.366;2023-04-03T08:36:23;20.65;;;17.08;;
31224;SDS011;17847;31.524;74.366;2023-04-03T08:38:57;20.73;;;16.52;;
31224;SDS011;17847;31.524;74.366;2023-04-03T08:49:59;21.35;;;17.75;;
31224;SDS011;17847;31.524;74.366;2023-04-03T08:52:41;19.48;;;16.08;;
31224;SDS011;17847;31.524;74.366;2023-04-03T08:57:58;21.30;;;17.43;;
31224;SDS011;17847;31.524;74.366;2023-04-03T09:01:17;24.27;;;17.08;;
31224;SDS011;17847;31.524;74.366;2023-04-03T09:03:40;25.02;;;18.52;;
31224;SDS011;17847;31.524;74.366;2023-04-03T09:06:13;30.98;;;18.98;;
31224;SDS011;17847;31.524;74.366;2023-04-03T09:08:59;31.05;;;21.60;;
31224;SDS011;17847;31.524;74.366;2023-04-03T09:11:46;35.33;;;19.95;;
31224;SDS011;17847;31.524;74.366;2023-04-03T09:16:59;22.95;;;17.67;;
31224;SDS011;17847;31.524;74.366;2023-04-03T09:19:41;26.15;;;17.38;;
31224;SDS011;17847;31.524;74.366;2023-04-03T09:22:48;29.30;;;19.63;;
31224;SDS011;17847;31.524;74.366;2023-04-03T09:25:25;29.52;;;19.52;;
31224;SDS011;17847;31.524;74.366;2023-04-03T09:28:01;31.73;;;19.15;;
31224;SDS011;17847;31.524;74.366;2023-04-03T09:30:32;29.80;;;20.05;;
31224;SDS011;17847;31.524;74.366;2023-04-03T09:33:02;26.55;;;19.65;;
31224;SDS011;17847;31.524;74.366;2023-04-03T09:35:35;34.50;;;20.30;;
31224;SDS011;17847;31.524;74.366;2023-04-03T09:38:16;32.47;;;22.38;;
31224;SDS011;17847;31.524;74.366;2023-04-03T09:41:34;26.90;;;22.20;;
31224;SDS011;17847;31.524;74.366;2023-04-03T09:43:52;35.78;;;24.15;;
31224;SDS011;17847;31.524;74.366;2023-04-03T09:46:31;32.20;;;24.73;;
31224;SDS011;17847;31.524;74.366;2023-04-03T09:49:03;30.75;;;23.95;;
31224;SDS011;17847;31.524;74.366;2023-04-03T09:51:36;30.10;;;24.13;;
31224;SDS011;17847;31.524;74.366;2023-04-03T09:57:11;31.63;;;23.85;;
31224;SDS011;17847;31.524;74.366;2023-04-03T10:00:03;29.07;;;22.63;;
31224;SDS011;17847;31.524;74.366;2023-04-03T10:02:37;29.48;;;21.38;;
31224;SDS011;17847;31.524;74.366;2023-04-03T10:05:26;28.55;;;21.50;;
31224;SDS011;17847;31.524;74.366;2023-04-03T10:10:43;36.78;;;22.55;;
31224;SDS011;17847;31.524;74.366;2023-04-03T10:13:19;32.15;;;23.50;;
31224;SDS011;17847;31.524;74.366;2023-04-03T10:41:58;24.35;;;21.75;;
31224;SDS011;17847;31.524;74.366;2023-04-03T10:58:43;28.33;;;22.80;;
31224;SDS011;17847;31.524;74.366;2023-04-03T11:01:24;29.35;;;23.45;;
31224;SDS011;17847;31.524;74.366;2023-04-03T11:04:01;32.80;;;26.55;;
31224;SDS011;17847;31.524;74.366;2023-04-03T11:06:39;29.88;;;24.70;;
31224;SDS011;17847;31.524;74.366;2023-04-03T11:09:24;30.83;;;25.27;;
31224;SDS011;17847;31.524;74.366;2023-04-03T11:12:00;26.50;;;23.65;;
31224;SDS011;17847;31.524;74.366;2023-04-03T11:14:35;28.27;;;25.35;;
31224;SDS011;17847;31.524;74.366;2023-04-03T11:17:11;29.48;;;26.30;;
31224;SDS011;17847;31.524;74.366;2023-04-03T11:23:00;38.75;;;29.60;;
31224;SDS011;17847;31.524;74.366;2023-04-03T11:25:53;32.17;;;28.77;;
31224;SDS011;17847;31.524;74.366;2023-04-03T11:28:28;36.58;;;30.98;;
31224;SDS011;17847;31.524;74.366;2023-04-03T11:37:11;36.13;;;30.90;;
31224;SDS011;17847;31.524;74.366;2023-04-03T11:47:56;52.70;;;40.42;;
31224;SDS011;17847;31.524;74.366;2023-04-03T11:50:50;58.00;;;42.50;;
31224;SDS011;17847;31.524;74.366;2023-04-03T12:01:52;67.15;;;45.15;;
31224;SDS011;17847;31.524;74.366;2023-04-03T12:04:26;67.68;;;48.53;;
31224;SDS011;17847;31.524;74.366;2023-04-03T12:07:11;70.28;;;49.28;;
31224;SDS011;17847;31.524;74.366;2023-04-03T12:17:55;56.63;;;44.88;;
31224;SDS011;17847;31.524;74.366;2023-04-03T12:23:25;53.72;;;43.00;;
31224;SDS011;17847;31.524;74.366;2023-04-03T12:29:33;64.57;;;42.80;;
31224;SDS011;17847;31.524;74.366;2023-04-03T12:32:11;59.53;;;45.15;;
31224;SDS011;17847;31.524;74.366;2023-04-03T12:34:49;54.75;;;43.08;;
31224;SDS011;17847;31.524;74.366;2023-04-03T12:38:11;68.28;;;44.90;;
31224;SDS011;17847;31.524;74.366;2023-04-03T12:40:31;59.95;;;45.65;;
31224;SDS011;17847;31.524;74.366;2023-04-03T12:46:04;60.97;;;44.35;;
31224;SDS011;17847;31.524;74.366;2023-04-03T12:54:16;64.97;;;43.55;;
31224;SDS011;17847;31.524;74.366;2023-04-03T12:56:51;55.33;;;43.70;;
31224;SDS011;17847;31.524;74.366;2023-04-03T12:59:22;58.92;;;44.45;;
31224;SDS011;17847;31.524;74.366;2023-04-03T13:01:55;63.05;;;44.75;;
31224;SDS011;17847;31.524;74.366;2023-04-03T13:04:30;61.72;;;43.50;;
31224;SDS011;17847;31.524;74.366;2023-04-03T13:07:00;58.90;;;43.05;;
31224;SDS011;17847;31.524;74.366;2023-04-03T13:09:31;64.10;;;42.67;;
31224;SDS011;17847;31.524;74.366;2023-04-03T13:12:11;57.60;;;41.20;;
31224;SDS011;17847;31.524;74.366;2023-04-03T13:14:53;63.95;;;42.83;;
31224;SDS011;17847;31.524;74.366;2023-04-03T13:17:26;65.53;;;43.50;;
31224;SDS011;17847;31.524;74.366;2023-04-03T13:19:56;57.05;;;42.22;;
31224;SDS011;17847;31.524;74.366;2023-04-03T13:22:48;63.25;;;43.33;;
31224;SDS011;17847;31.524;74.366;2023-04-03T13:25:19;67.18;;;43.88;;
31224;SDS011;17847;31.524;74.366;2023-04-03T13:27:49;61.33;;;42.17;;
31224;SDS011;17847;31.524;74.366;2023-04-03T13:30:38;68.15;;;43.40;;
31224;SDS011;17847;31.524;74.366;2023-04-03T13:33:28;65.47;;;43.42;;
31224;SDS011;17847;31.524;74.366;2023-04-03T13:36:05;63.95;;;43.45;;
31224;SDS011;17847;31.524;74.366;2023-04-03T13:38:40;62.90;;;44.03;;
31224;SDS011;17847;31.524;74.366;2023-04-03T13:41:52;61.60;;;42.92;;
31224;SDS011;17847;31.524;74.366;2023-04-03T13:46:56;61.53;;;45.03;;
31224;SDS011;17847;31.524;74.366;2023-04-03T13:50:00;64.90;;;43.95;;
31224;SDS011;17847;31.524;74.366;2023-04-03T13:55:34;65.68;;;46.88;;
31224;SDS011;17847;31.524;74.366;2023-04-03T14:00:46;66.22;;;47.47;;
31224;SDS011;17847;31.524;74.366;2023-04-03T14:06:07;62.83;;;46.15;;
31224;SDS011;17847;31.524;74.366;2023-04-03T14:11:12;65.03;;;45.88;;
31224;SDS011;17847;31.524;74.366;2023-04-03T14:13:51;61.67;;;45.65;;
31224;SDS011;17847;31.524;74.366;2023-04-03T14:16:22;64.70;;;45.78;;
31224;SDS011;17847;31.524;74.366;2023-04-03T14:18:55;71.55;;;46.60;;
31224;SDS011;17847;31.524;74.366;2023-04-03T14:21:25;69.28;;;45.75;;
31224;SDS011;17847;31.524;74.366;2023-04-03T14:23:56;70.60;;;46.13;;
31224;SDS011;17847;31.524;74.366;2023-04-03T14:26:25;63.33;;;42.60;;
31224;SDS011;17847;31.524;74.366;2023-04-03T14:31:31;51.03;;;34.90;;
31224;SDS011;17847;31.524;74.366;2023-04-03T14:34:00;49.53;;;32.67;;
31224;SDS011;17847;31.524;74.366;2023-04-03T14:36:30;41.42;;;29.73;;
31224;SDS011;17847;31.524;74.366;2023-04-03T14:39:03;33.78;;;24.88;;
31224;SDS011;17847;31.524;74.366;2023-04-03T14:41:33;34.15;;;23.27;;
31224;SDS011;17847;31.524;74.366;2023-04-03T14:44:03;32.50;;;23.33;;
31224;SDS011;17847;31.524;74.366;2023-04-03T14:46:36;28.17;;;19.60;;
31224;SDS011;17847;31.524;74.366;2023-04-03T14:49:24;25.90;;;19.33;;
31224;SDS011;17847;31.524;74.366;2023-04-03T14:51:57;25.98;;;18.23;;
31224;SDS011;17847;31.524;74.366;2023-04-03T14:54:27;22.08;;;16.75;;
31224;SDS011;17847;31.524;74.366;2023-04-03T14:56:58;23.13;;;17.08;;
31224;SDS011;17847;31.524;74.366;2023-04-03T14:59:28;24.15;;;17.20;;
31224;SDS011;17847;31.524;74.366;2023-04-03T15:02:01;19.50;;;15.50;;
31224;SDS011;17847;31.524;74.366;2023-04-03T15:04:31;23.98;;;17.48;;
31224;SDS011;17847;31.524;74.366;2023-04-03T15:07:01;19.52;;;14.27;;
31224;SDS011;17847;31.524;74.366;2023-04-03T15:09:30;21.00;;;14.85;;
31224;SDS011;17847;31.524;74.366;2023-04-03T15:11:59;20.42;;;15.73;;
31224;SDS011;17847;31.524;74.366;2023-04-03T15:14:29;25.52;;;16.10;;
31224;SDS011;17847;31.524;74.366;2023-04-03T15:17:15;24.80;;;16.08;;
31224;SDS011;17847;31.524;74.366;2023-04-03T15:19:48;25.98;;;15.98;;
31224;SDS011;17847;31.524;74.366;2023-04-03T15:22:19;21.88;;;16.90;;
31224;SDS011;17847;31.524;74.366;2023-04-03T15:24:49;24.17;;;15.50;;
31224;SDS011;17847;31.524;74.366;2023-04-03T15:27:19;22.30;;;16.67;;
31224;SDS011;17847;31.524;74.366;2023-04-03T15:29:48;24.25;;;16.33;;
31224;SDS011;17847;31.524;74.366;2023-04-03T15:32:19;26.92;;;16.08;;
31224;SDS011;17847;31.524;74.366;2023-04-03T15:34:48;25.42;;;16.15;;
31224;SDS011;17847;31.524;74.366;2023-04-03T15:37:22;21.15;;;15.73;;
31224;SDS011;17847;31.524;74.366;2023-04-03T15:39:52;23.23;;;16.45;;
31224;SDS011;17847;31.524;74.366;2023-04-03T15:42:22;24.55;;;16.33;;
31224;SDS011;17847;31.524;74.366;2023-04-03T15:44:51;23.05;;;16.42;;
31224;SDS011;17847;31.524;74.366;2023-04-03T15:47:21;23.63;;;16.00;;
31224;SDS011;17847;31.524;74.366;2023-04-03T15:49:50;21.52;;;15.57;;
31224;SDS011;17847;31.524;74.366;2023-04-03T15:52:20;23.95;;;15.45;;
31224;SDS011;17847;31.524;74.366;2023-04-03T15:54:51;19.88;;;15.43;;
31224;SDS011;17847;31.524;74.366;2023-04-03T15:57:21;20.90;;;14.93;;
31224;SDS011;17847;31.524;74.366;2023-04-03T15:59:57;20.83;;;15.00;;
31224;SDS011;17847;31.524;74.366;2023-04-03T16:02:33;22.17;;;15.30;;
31224;SDS011;17847;31.524;74.366;2023-04-03T16:05:04;22.30;;;15.10;;
31224;SDS011;17847;31.524;74.366;2023-04-03T16:07:36;25.00;;;15.50;;
31224;SDS011;17847;31.524;74.366;2023-04-03T16:10:10;22.63;;;14.88;;
31224;SDS011;17847;31.524;74.366;2023-04-03T16:12:41;23.50;;;15.68;;
31224;SDS011;17847;31.524;74.366;2023-04-03T16:15:14;22.92;;;15.43;;
31224;SDS011;17847;31.524;74.366;2023-04-03T16:17:45;22.83;;;14.07;;
31224;SDS011;17847;31.524;74.366;2023-04-03T16:20:18;21.90;;;15.15;;
31224;SDS011;17847;31.524;74.366;2023-04-03T16:22:50;21.30;;;15.35;;
31224;SDS011;17847;31.524;74.366;2023-04-03T16:25:22;20.23;;;15.45;;
31224;SDS011;17847;31.524;74.366;2023-04-03T16:27:53;26.30;;;16.17;;
31224;SDS011;17847;31.524;74.366;2023-04-03T16:30:24;23.63;;;15.88;;
31224;SDS011;17847;31.524;74.366;2023-04-03T16:32:56;23.67;;;15.95;;
31224;SDS011;17847;31.524;74.366;2023-04-03T16:35:26;23.70;;;16.63;;
31224;SDS011;17847;31.524;74.366;2023-04-03T16:37:57;25.30;;;16.25;;
31224;SDS011;17847;31.524;74.366;2023-04-03T16:40:27;22.40;;;17.10;;
31224;SDS011;17847;31.524;74.366;2023-04-03T16:42:59;21.40;;;16.30;;
31224;SDS011;17847;31.524;74.366;2023-04-03T16:45:31;24.20;;;16.00;;
31224;SDS011;17847;31.524;74.366;2023-04-03T16:48:02;24.77;;;15.80;;
31224;SDS011;17847;31.524;74.366;2023-04-03T16:50:34;22.58;;;15.27;;
31224;SDS011;17847;31.524;74.366;2023-04-03T16:53:09;22.52;;;15.95;;
31224;SDS011;17847;31.524;74.366;2023-04-03T16:55:41;22.83;;;15.88;;
31224;SDS011;17847;31.524;74.366;2023-04-03T16:58:12;27.52;;;16.10;;
31224;SDS011;17847;31.524;74.366;2023-04-03T17:00:43;25.65;;;16.27;;